sensor_id;sensor_type;location;lat;lon;timestamp;P1;durP1;ratioP1;P2;durP2;ratioP2
52208;SDS011;38507;53.132;6.394;2022-08-01T00:01:46;13.88;;;7.18;;
52208;SDS011;38507;53.132;6.394;2022-08-01T00:04:11;18.50;;;8.02;;
52208;SDS011;38507;53.132;6.394;2022-08-01T00:06:37;14.65;;;6.90;;
52208;SDS011;38507;53.132;6.394;2022-08-01T00:09:03;14.38;;;7.22;;
52208;SDS011;38507;53.132;6.394;2022-08-01T00:11:28;16.30;;;6.95;;
52208;SDS011;38507;53.132;6.394;2022-08-01T00:13:54;13.25;;;6.80;;
52208;SDS011;38507;53.132;6.394;2022-08-01T00:16:20;14.45;;;7.43;;
52208;SDS011;38507;53.132;6.394;2022-08-01T00:18:47;15.07;;;6.78;;
52208;SDS011;38507;53.132;6.394;2022-08-01T00:21:14;11.13;;;5.95;;
52208;SDS011;38507;53.132;6.394;2022-08-01T00:23:40;13.27;;;5.90;;
52208;SDS011;38507;53.132;6.394;2022-08-01T00:26:06;12.32;;;5.68;;
52208;SDS011;38507;53.132;6.394;2022-08-01T00:28:32;10.70;;;4.45;;
52208;SDS011;38507;53.132;6.394;2022-08-01T00:30:58;8.40;;;4.80;;
52208;SDS011;38507;53.132;6.394;2022-08-01T00:33:24;9.52;;;4.63;;
52208;SDS011;38507;53.132;6.394;2022-08-01T00:35:49;16.25;;;5.03;;
52208;SDS011;38507;53.132;6.394;2022-08-01T00:38:15;11.65;;;4.75;;
52208;SDS011;38507;53.132;6.394;2022-08-01T00:40:41;6.80;;;3.28;;
52208;SDS011;38507;53.132;6.394;2022-08-01T00:43:06;6.40;;;3.92;;
52208;SDS011;38507;53.132;6.394;2022-08-01T00:45:32;8.63;;;3.22;;
52208;SDS011;38507;53.132;6.394;2022-08-01T00:47:58;5.90;;;3.25;;
52208;SDS011;38507;53.132;6.394;2022-08-01T00:50:23;6.75;;;2.83;;
52208;SDS011;38507;53.132;6.394;2022-08-01T00:52:49;4.43;;;2.65;;
52208;SDS011;38507;53.132;6.394;2022-08-01T00:55:15;6.55;;;3.08;;
52208;SDS011;38507;53.132;6.394;2022-08-01T00:57:43;5.97;;;2.40;;
52208;SDS011;38507;53.132;6.394;2022-08-01T01:00:09;11.23;;;2.65;;
52208;SDS011;38507;53.132;6.394;2022-08-01T01:02:36;9.20;;;2.60;;
52208;SDS011;38507;53.132;6.394;2022-08-01T01:05:02;10.32;;;2.92;;
52208;SDS011;38507;53.132;6.394;2022-08-01T01:07:30;6.63;;;2.85;;
52208;SDS011;38507;53.132;6.394;2022-08-01T01:12:44;6.97;;;3.05;;
52208;SDS011;38507;53.132;6.394;2022-08-01T01:15:18;5.60;;;2.83;;
52208;SDS011;38507;53.132;6.394;2022-08-01T01:18:07;7.03;;;2.65;;
52208;SDS011;38507;53.132;6.394;2022-08-01T01:20:37;5.43;;;2.75;;
52208;SDS011;38507;53.132;6.394;2022-08-01T01:23:29;6.70;;;3.10;;
52208;SDS011;38507;53.132;6.394;2022-08-01T01:26:20;9.52;;;2.78;;
52208;SDS011;38507;53.132;6.394;2022-08-01T01:29:09;5.00;;;2.35;;
52208;SDS011;38507;53.132;6.394;2022-08-01T01:34:22;7.65;;;2.90;;
52208;SDS011;38507;53.132;6.394;2022-08-01T01:36:50;5.25;;;2.42;;
52208;SDS011;38507;53.132;6.394;2022-08-01T01:39:19;5.45;;;2.28;;
52208;SDS011;38507;53.132;6.394;2022-08-01T01:41:46;4.43;;;1.90;;
52208;SDS011;38507;53.132;6.394;2022-08-01T01:44:13;10.55;;;2.45;;
52208;SDS011;38507;53.132;6.394;2022-08-01T01:46:40;5.25;;;1.90;;
52208;SDS011;38507;53.132;6.394;2022-08-01T01:49:07;5.85;;;2.08;;
52208;SDS011;38507;53.132;6.394;2022-08-01T01:51:37;6.75;;;1.80;;
52208;SDS011;38507;53.132;6.394;2022-08-01T01:54:05;8.70;;;2.15;;
52208;SDS011;38507;53.132;6.394;2022-08-01T01:56:33;10.85;;;2.53;;
52208;SDS011;38507;53.132;6.394;2022-08-01T01:59:00;9.85;;;2.08;;
52208;SDS011;38507;53.132;6.394;2022-08-01T02:01:31;8.15;;;2.22;;
52208;SDS011;38507;53.132;6.394;2022-08-01T02:03:59;8.98;;;1.90;;
52208;SDS011;38507;53.132;6.394;2022-08-01T02:06:27;9.60;;;1.70;;
52208;SDS011;38507;53.132;6.394;2022-08-01T02:08:55;8.60;;;1.73;;
52208;SDS011;38507;53.132;6.394;2022-08-01T02:11:22;6.75;;;2.08;;
52208;SDS011;38507;53.132;6.394;2022-08-01T02:13:51;11.95;;;2.25;;
52208;SDS011;38507;53.132;6.394;2022-08-01T02:16:21;13.70;;;2.10;;
52208;SDS011;38507;53.132;6.394;2022-08-01T02:18:49;6.88;;;1.95;;
52208;SDS011;38507;53.132;6.394;2022-08-01T02:21:16;8.80;;;1.80;;
52208;SDS011;38507;53.132;6.394;2022-08-01T02:23:51;8.13;;;1.90;;
52208;SDS011;38507;53.132;6.394;2022-08-01T02:26:18;8.90;;;1.80;;
52208;SDS011;38507;53.132;6.394;2022-08-01T02:28:49;9.55;;;1.80;;
52208;SDS011;38507;53.132;6.394;2022-08-01T02:31:21;8.43;;;2.05;;
52208;SDS011;38507;53.132;6.394;2022-08-01T02:33:53;14.70;;;2.40;;
52208;SDS011;38507;53.132;6.394;2022-08-01T02:36:32;7.78;;;1.90;;
52208;SDS011;38507;53.132;6.394;2022-08-01T02:39:03;12.05;;;2.58;;
52208;SDS011;38507;53.132;6.394;2022-08-01T02:44:04;12.40;;;2.10;;
52208;SDS011;38507;53.132;6.394;2022-08-01T02:46:33;15.13;;;2.33;;
52208;SDS011;38507;53.132;6.394;2022-08-01T02:49:02;10.35;;;2.30;;
52208;SDS011;38507;53.132;6.394;2022-08-01T02:51:31;13.55;;;2.20;;
52208;SDS011;38507;53.132;6.394;2022-08-01T02:53:57;14.57;;;2.92;;
52208;SDS011;38507;53.132;6.394;2022-08-01T02:56:26;10.50;;;2.40;;
52208;SDS011;38507;53.132;6.394;2022-08-01T02:59:00;9.90;;;2.30;;
52208;SDS011;38507;53.132;6.394;2022-08-01T03:01:28;9.18;;;2.80;;
52208;SDS011;38507;53.132;6.394;2022-08-01T03:03:55;13.32;;;2.40;;
52208;SDS011;38507;53.132;6.394;2022-08-01T03:06:21;14.82;;;3.13;;
52208;SDS011;38507;53.132;6.394;2022-08-01T03:08:48;14.07;;;2.70;;
52208;SDS011;38507;53.132;6.394;2022-08-01T03:11:15;13.43;;;2.40;;
52208;SDS011;38507;53.132;6.394;2022-08-01T03:13:41;16.58;;;3.60;;
52208;SDS011;38507;53.132;6.394;2022-08-01T03:16:10;13.60;;;3.15;;
52208;SDS011;38507;53.132;6.394;2022-08-01T03:18:37;9.25;;;2.75;;
52208;SDS011;38507;53.132;6.394;2022-08-01T03:21:06;13.45;;;2.92;;
52208;SDS011;38507;53.132;6.394;2022-08-01T03:23:33;11.65;;;2.67;;
52208;SDS011;38507;53.132;6.394;2022-08-01T03:26:01;15.63;;;3.88;;
52208;SDS011;38507;53.132;6.394;2022-08-01T03:28:27;13.70;;;3.65;;
52208;SDS011;38507;53.132;6.394;2022-08-01T03:30:54;15.98;;;3.50;;
52208;SDS011;38507;53.132;6.394;2022-08-01T03:33:21;13.75;;;3.55;;
52208;SDS011;38507;53.132;6.394;2022-08-01T03:35:48;10.40;;;2.97;;
52208;SDS011;38507;53.132;6.394;2022-08-01T03:38:19;13.20;;;3.10;;
52208;SDS011;38507;53.132;6.394;2022-08-01T03:40:51;14.30;;;3.33;;
52208;SDS011;38507;53.132;6.394;2022-08-01T03:43:20;13.57;;;3.05;;
52208;SDS011;38507;53.132;6.394;2022-08-01T03:45:52;10.83;;;3.13;;
52208;SDS011;38507;53.132;6.394;2022-08-01T03:48:22;9.32;;;2.72;;
52208;SDS011;38507;53.132;6.394;2022-08-01T03:50:53;13.75;;;3.25;;
52208;SDS011;38507;53.132;6.394;2022-08-01T03:53:20;14.65;;;2.90;;
52208;SDS011;38507;53.132;6.394;2022-08-01T03:55:49;14.13;;;3.30;;
52208;SDS011;38507;53.132;6.394;2022-08-01T03:58:17;17.05;;;3.33;;
52208;SDS011;38507;53.132;6.394;2022-08-01T04:00:43;16.17;;;2.90;;
52208;SDS011;38507;53.132;6.394;2022-08-01T04:03:10;15.43;;;3.83;;
52208;SDS011;38507;53.132;6.394;2022-08-01T04:05:37;15.80;;;3.50;;
52208;SDS011;38507;53.132;6.394;2022-08-01T04:08:05;17.77;;;3.38;;
52208;SDS011;38507;53.132;6.394;2022-08-01T04:10:30;14.75;;;2.80;;
52208;SDS011;38507;53.132;6.394;2022-08-01T04:12:56;11.20;;;3.03;;
52208;SDS011;38507;53.132;6.394;2022-08-01T04:15:22;15.23;;;2.65;;
52208;SDS011;38507;53.132;6.394;2022-08-01T04:17:48;21.10;;;3.13;;
52208;SDS011;38507;53.132;6.394;2022-08-01T04:20:14;18.20;;;3.00;;
52208;SDS011;38507;53.132;6.394;2022-08-01T04:22:41;15.45;;;3.28;;
52208;SDS011;38507;53.132;6.394;2022-08-01T04:25:08;13.68;;;2.70;;
52208;SDS011;38507;53.132;6.394;2022-08-01T04:27:38;23.45;;;5.05;;
52208;SDS011;38507;53.132;6.394;2022-08-01T04:30:07;16.40;;;3.13;;
52208;SDS011;38507;53.132;6.394;2022-08-01T04:32:34;8.23;;;2.30;;
52208;SDS011;38507;53.132;6.394;2022-08-01T04:35:05;16.10;;;3.03;;
52208;SDS011;38507;53.132;6.394;2022-08-01T04:37:34;19.02;;;3.65;;
52208;SDS011;38507;53.132;6.394;2022-08-01T04:40:03;18.05;;;2.72;;
52208;SDS011;38507;53.132;6.394;2022-08-01T04:42:31;14.15;;;3.67;;
52208;SDS011;38507;53.132;6.394;2022-08-01T04:44:58;13.57;;;2.55;;
52208;SDS011;38507;53.132;6.394;2022-08-01T04:47:25;15.23;;;3.00;;
52208;SDS011;38507;53.132;6.394;2022-08-01T04:49:51;16.77;;;3.13;;
52208;SDS011;38507;53.132;6.394;2022-08-01T04:52:17;23.35;;;4.03;;
52208;SDS011;38507;53.132;6.394;2022-08-01T04:54:43;19.10;;;3.10;;
52208;SDS011;38507;53.132;6.394;2022-08-01T04:57:09;18.67;;;3.70;;
52208;SDS011;38507;53.132;6.394;2022-08-01T04:59:35;17.13;;;3.28;;
52208;SDS011;38507;53.132;6.394;2022-08-01T05:04:36;21.02;;;3.30;;
52208;SDS011;38507;53.132;6.394;2022-08-01T05:07:03;17.58;;;2.75;;
52208;SDS011;38507;53.132;6.394;2022-08-01T05:09:30;19.65;;;2.80;;
52208;SDS011;38507;53.132;6.394;2022-08-01T05:11:56;16.30;;;2.85;;
52208;SDS011;38507;53.132;6.394;2022-08-01T05:14:24;26.10;;;3.05;;
52208;SDS011;38507;53.132;6.394;2022-08-01T05:16:50;22.52;;;3.35;;
52208;SDS011;38507;53.132;6.394;2022-08-01T05:19:16;13.68;;;2.53;;
52208;SDS011;38507;53.132;6.394;2022-08-01T05:21:42;17.10;;;3.17;;
52208;SDS011;38507;53.132;6.394;2022-08-01T05:24:08;19.58;;;2.70;;
52208;SDS011;38507;53.132;6.394;2022-08-01T05:26:33;17.13;;;3.00;;
52208;SDS011;38507;53.132;6.394;2022-08-01T05:29:00;19.92;;;3.20;;
52208;SDS011;38507;53.132;6.394;2022-08-01T05:31:26;17.50;;;3.13;;
52208;SDS011;38507;53.132;6.394;2022-08-01T05:33:51;11.60;;;2.60;;
52208;SDS011;38507;53.132;6.394;2022-08-01T05:36:17;18.35;;;2.90;;
52208;SDS011;38507;53.132;6.394;2022-08-01T05:38:43;21.20;;;3.20;;
52208;SDS011;38507;53.132;6.394;2022-08-01T05:41:08;19.58;;;2.88;;
52208;SDS011;38507;53.132;6.394;2022-08-01T05:43:35;17.52;;;3.58;;
52208;SDS011;38507;53.132;6.394;2022-08-01T05:46:01;17.95;;;3.17;;
52208;SDS011;38507;53.132;6.394;2022-08-01T05:48:26;18.80;;;3.30;;
52208;SDS011;38507;53.132;6.394;2022-08-01T05:50:53;24.48;;;3.70;;
52208;SDS011;38507;53.132;6.394;2022-08-01T05:53:19;21.70;;;3.60;;
52208;SDS011;38507;53.132;6.394;2022-08-01T05:55:44;18.92;;;2.70;;
52208;SDS011;38507;53.132;6.394;2022-08-01T05:58:10;20.10;;;3.65;;
52208;SDS011;38507;53.132;6.394;2022-08-01T06:00:36;28.38;;;3.13;;
52208;SDS011;38507;53.132;6.394;2022-08-01T06:03:01;21.10;;;3.00;;
52208;SDS011;38507;53.132;6.394;2022-08-01T06:05:27;18.08;;;2.60;;
52208;SDS011;38507;53.132;6.394;2022-08-01T06:07:53;19.85;;;3.28;;
52208;SDS011;38507;53.132;6.394;2022-08-01T06:10:19;20.10;;;3.13;;
52208;SDS011;38507;53.132;6.394;2022-08-01T06:12:44;19.17;;;3.35;;
52208;SDS011;38507;53.132;6.394;2022-08-01T06:15:10;20.08;;;3.10;;
52208;SDS011;38507;53.132;6.394;2022-08-01T06:17:36;21.08;;;3.03;;
52208;SDS011;38507;53.132;6.394;2022-08-01T06:20:02;23.73;;;4.03;;
52208;SDS011;38507;53.132;6.394;2022-08-01T06:22:28;23.58;;;3.60;;
52208;SDS011;38507;53.132;6.394;2022-08-01T06:24:54;19.23;;;3.25;;
52208;SDS011;38507;53.132;6.394;2022-08-01T06:27:20;17.92;;;3.15;;
52208;SDS011;38507;53.132;6.394;2022-08-01T06:29:45;21.70;;;3.97;;
52208;SDS011;38507;53.132;6.394;2022-08-01T06:32:11;19.95;;;3.75;;
52208;SDS011;38507;53.132;6.394;2022-08-01T06:34:37;22.73;;;3.15;;
52208;SDS011;38507;53.132;6.394;2022-08-01T06:37:03;23.38;;;3.15;;
52208;SDS011;38507;53.132;6.394;2022-08-01T06:39:28;22.33;;;3.30;;
52208;SDS011;38507;53.132;6.394;2022-08-01T06:41:54;16.52;;;3.03;;
52208;SDS011;38507;53.132;6.394;2022-08-01T06:44:19;16.15;;;2.72;;
52208;SDS011;38507;53.132;6.394;2022-08-01T06:46:45;26.73;;;3.03;;
52208;SDS011;38507;53.132;6.394;2022-08-01T06:49:11;23.70;;;3.00;;
52208;SDS011;38507;53.132;6.394;2022-08-01T06:51:36;18.98;;;2.83;;
52208;SDS011;38507;53.132;6.394;2022-08-01T06:54:02;20.70;;;2.42;;
52208;SDS011;38507;53.132;6.394;2022-08-01T06:56:28;16.88;;;3.42;;
52208;SDS011;38507;53.132;6.394;2022-08-01T06:58:54;22.20;;;3.13;;
52208;SDS011;38507;53.132;6.394;2022-08-01T07:01:25;18.88;;;3.58;;
52208;SDS011;38507;53.132;6.394;2022-08-01T07:03:54;16.60;;;3.15;;
52208;SDS011;38507;53.132;6.394;2022-08-01T07:06:21;16.27;;;2.63;;
52208;SDS011;38507;53.132;6.394;2022-08-01T07:08:47;17.85;;;3.00;;
52208;SDS011;38507;53.132;6.394;2022-08-01T07:11:13;13.65;;;2.30;;
52208;SDS011;38507;53.132;6.394;2022-08-01T07:13:39;16.83;;;2.45;;
52208;SDS011;38507;53.132;6.394;2022-08-01T07:16:04;11.60;;;2.45;;
52208;SDS011;38507;53.132;6.394;2022-08-01T07:18:30;20.73;;;2.85;;
52208;SDS011;38507;53.132;6.394;2022-08-01T07:20:55;17.67;;;2.10;;
52208;SDS011;38507;53.132;6.394;2022-08-01T07:23:21;21.52;;;3.63;;
52208;SDS011;38507;53.132;6.394;2022-08-01T07:25:47;13.35;;;2.20;;
52208;SDS011;38507;53.132;6.394;2022-08-01T07:28:14;15.57;;;2.20;;
52208;SDS011;38507;53.132;6.394;2022-08-01T07:30:40;20.58;;;2.55;;
52208;SDS011;38507;53.132;6.394;2022-08-01T07:33:07;18.25;;;3.35;;
52208;SDS011;38507;53.132;6.394;2022-08-01T07:35:33;24.80;;;3.42;;
52208;SDS011;38507;53.132;6.394;2022-08-01T07:37:59;12.38;;;2.83;;
52208;SDS011;38507;53.132;6.394;2022-08-01T07:40:25;18.23;;;2.80;;
52208;SDS011;38507;53.132;6.394;2022-08-01T07:42:50;11.95;;;2.13;;
52208;SDS011;38507;53.132;6.394;2022-08-01T07:45:16;13.93;;;2.42;;
52208;SDS011;38507;53.132;6.394;2022-08-01T07:47:42;13.02;;;2.20;;
52208;SDS011;38507;53.132;6.394;2022-08-01T07:50:07;15.48;;;2.17;;
52208;SDS011;38507;53.132;6.394;2022-08-01T07:52:37;13.05;;;1.88;;
52208;SDS011;38507;53.132;6.394;2022-08-01T07:55:03;14.25;;;2.25;;
52208;SDS011;38507;53.132;6.394;2022-08-01T07:57:29;13.85;;;1.98;;
52208;SDS011;38507;53.132;6.394;2022-08-01T07:59:57;14.45;;;2.10;;
52208;SDS011;38507;53.132;6.394;2022-08-01T08:02:23;13.95;;;2.45;;
52208;SDS011;38507;53.132;6.394;2022-08-01T08:04:49;16.40;;;2.47;;
52208;SDS011;38507;53.132;6.394;2022-08-01T08:07:15;16.08;;;2.40;;
52208;SDS011;38507;53.132;6.394;2022-08-01T08:09:41;10.85;;;2.15;;
52208;SDS011;38507;53.132;6.394;2022-08-01T08:12:06;13.82;;;1.55;;
52208;SDS011;38507;53.132;6.394;2022-08-01T08:14:32;18.95;;;2.35;;
52208;SDS011;38507;53.132;6.394;2022-08-01T08:16:58;8.20;;;1.65;;
52208;SDS011;38507;53.132;6.394;2022-08-01T08:19:28;8.60;;;1.60;;
52208;SDS011;38507;53.132;6.394;2022-08-01T08:21:53;15.30;;;1.77;;
52208;SDS011;38507;53.132;6.394;2022-08-01T08:24:19;15.88;;;1.95;;
52208;SDS011;38507;53.132;6.394;2022-08-01T08:26:49;11.80;;;1.63;;
52208;SDS011;38507;53.132;6.394;2022-08-01T08:29:19;12.00;;;1.80;;
52208;SDS011;38507;53.132;6.394;2022-08-01T08:31:45;13.18;;;1.80;;
52208;SDS011;38507;53.132;6.394;2022-08-01T08:34:15;13.80;;;2.30;;
52208;SDS011;38507;53.132;6.394;2022-08-01T08:36:41;13.45;;;1.70;;
52208;SDS011;38507;53.132;6.394;2022-08-01T08:39:07;15.20;;;2.15;;
52208;SDS011;38507;53.132;6.394;2022-08-01T08:41:33;11.93;;;2.42;;
52208;SDS011;38507;53.132;6.394;2022-08-01T08:44:06;16.50;;;1.80;;
52208;SDS011;38507;53.132;6.394;2022-08-01T08:46:33;11.18;;;1.70;;
52208;SDS011;38507;53.132;6.394;2022-08-01T08:49:04;13.43;;;2.03;;
52208;SDS011;38507;53.132;6.394;2022-08-01T08:51:39;7.65;;;1.65;;
52208;SDS011;38507;53.132;6.394;2022-08-01T08:54:07;17.05;;;1.73;;
52208;SDS011;38507;53.132;6.394;2022-08-01T08:56:37;14.00;;;1.40;;
52208;SDS011;38507;53.132;6.394;2022-08-01T08:59:04;9.80;;;1.50;;
52208;SDS011;38507;53.132;6.394;2022-08-01T09:01:31;8.85;;;1.58;;
52208;SDS011;38507;53.132;6.394;2022-08-01T09:03:58;12.63;;;1.63;;
52208;SDS011;38507;53.132;6.394;2022-08-01T09:06:24;8.55;;;1.48;;
52208;SDS011;38507;53.132;6.394;2022-08-01T09:08:50;9.82;;;1.33;;
52208;SDS011;38507;53.132;6.394;2022-08-01T09:11:18;8.48;;;1.30;;
52208;SDS011;38507;53.132;6.394;2022-08-01T09:16:28;13.03;;;1.67;;
52208;SDS011;38507;53.132;6.394;2022-08-01T09:19:03;11.25;;;1.60;;
52208;SDS011;38507;53.132;6.394;2022-08-01T09:21:55;12.45;;;1.75;;
52208;SDS011;38507;53.132;6.394;2022-08-01T09:24:27;13.10;;;1.77;;
52208;SDS011;38507;53.132;6.394;2022-08-01T09:26:53;11.95;;;2.03;;
52208;SDS011;38507;53.132;6.394;2022-08-01T09:29:27;8.43;;;1.52;;
52208;SDS011;38507;53.132;6.394;2022-08-01T09:31:54;6.40;;;1.58;;
52208;SDS011;38507;53.132;6.394;2022-08-01T09:34:30;8.68;;;1.23;;
52208;SDS011;38507;53.132;6.394;2022-08-01T09:36:58;8.25;;;1.70;;
52208;SDS011;38507;53.132;6.394;2022-08-01T09:39:29;12.85;;;1.90;;
52208;SDS011;38507;53.132;6.394;2022-08-01T09:41:57;12.15;;;2.08;;
52208;SDS011;38507;53.132;6.394;2022-08-01T09:44:39;9.10;;;1.35;;
52208;SDS011;38507;53.132;6.394;2022-08-01T09:47:06;12.25;;;1.30;;
52208;SDS011;38507;53.132;6.394;2022-08-01T09:49:36;12.90;;;1.80;;
52208;SDS011;38507;53.132;6.394;2022-08-01T09:52:10;11.77;;;1.70;;
52208;SDS011;38507;53.132;6.394;2022-08-01T09:57:23;12.15;;;1.70;;
52208;SDS011;38507;53.132;6.394;2022-08-01T09:59:53;11.05;;;1.92;;
52208;SDS011;38507;53.132;6.394;2022-08-01T10:05:01;8.10;;;1.42;;
52208;SDS011;38507;53.132;6.394;2022-08-01T10:07:28;11.88;;;1.95;;
52208;SDS011;38507;53.132;6.394;2022-08-01T10:09:54;11.27;;;1.85;;
52208;SDS011;38507;53.132;6.394;2022-08-01T10:12:20;9.73;;;1.48;;
52208;SDS011;38507;53.132;6.394;2022-08-01T10:14:49;8.85;;;1.13;;
52208;SDS011;38507;53.132;6.394;2022-08-01T10:17:16;9.38;;;1.35;;
52208;SDS011;38507;53.132;6.394;2022-08-01T10:19:42;13.82;;;1.70;;
52208;SDS011;38507;53.132;6.394;2022-08-01T10:22:10;8.80;;;1.30;;
52208;SDS011;38507;53.132;6.394;2022-08-01T10:24:42;7.63;;;1.42;;
52208;SDS011;38507;53.132;6.394;2022-08-01T10:27:11;7.95;;;1.40;;
52208;SDS011;38507;53.132;6.394;2022-08-01T10:29:46;7.38;;;1.08;;
52208;SDS011;38507;53.132;6.394;2022-08-01T10:32:25;10.07;;;1.02;;
52208;SDS011;38507;53.132;6.394;2022-08-01T10:34:52;9.00;;;1.20;;
52208;SDS011;38507;53.132;6.394;2022-08-01T10:37:17;8.93;;;1.55;;
52208;SDS011;38507;53.132;6.394;2022-08-01T10:39:44;10.63;;;1.23;;
52208;SDS011;38507;53.132;6.394;2022-08-01T10:42:10;8.32;;;1.20;;
52208;SDS011;38507;53.132;6.394;2022-08-01T10:44:37;7.43;;;1.77;;
52208;SDS011;38507;53.132;6.394;2022-08-01T10:47:05;10.00;;;1.60;;
52208;SDS011;38507;53.132;6.394;2022-08-01T10:49:49;14.68;;;1.73;;
52208;SDS011;38507;53.132;6.394;2022-08-01T10:52:21;6.50;;;0.90;;
52208;SDS011;38507;53.132;6.394;2022-08-01T10:54:47;10.00;;;1.30;;
52208;SDS011;38507;53.132;6.394;2022-08-01T10:57:13;11.90;;;1.30;;
52208;SDS011;38507;53.132;6.394;2022-08-01T10:59:49;7.75;;;1.30;;
52208;SDS011;38507;53.132;6.394;2022-08-01T11:02:25;7.50;;;1.20;;
52208;SDS011;38507;53.132;6.394;2022-08-01T11:05:12;7.35;;;1.40;;
52208;SDS011;38507;53.132;6.394;2022-08-01T11:07:47;9.90;;;1.27;;
52208;SDS011;38507;53.132;6.394;2022-08-01T11:13:01;6.30;;;1.20;;
52208;SDS011;38507;53.132;6.394;2022-08-01T11:15:33;8.40;;;1.10;;
52208;SDS011;38507;53.132;6.394;2022-08-01T11:18:00;7.95;;;1.08;;
52208;SDS011;38507;53.132;6.394;2022-08-01T11:20:56;9.82;;;1.45;;
52208;SDS011;38507;53.132;6.394;2022-08-01T11:23:24;7.88;;;1.20;;
52208;SDS011;38507;53.132;6.394;2022-08-01T11:28:19;7.60;;;1.10;;
52208;SDS011;38507;53.132;6.394;2022-08-01T11:33:18;11.05;;;1.45;;
52208;SDS011;38507;53.132;6.394;2022-08-01T11:38:39;10.55;;;1.20;;
52208;SDS011;38507;53.132;6.394;2022-08-01T11:41:13;5.97;;;1.00;;
52208;SDS011;38507;53.132;6.394;2022-08-01T11:44:00;6.45;;;1.00;;
52208;SDS011;38507;53.132;6.394;2022-08-01T11:46:49;9.27;;;1.95;;
52208;SDS011;38507;53.132;6.394;2022-08-01T11:57:25;8.85;;;1.15;;
52208;SDS011;38507;53.132;6.394;2022-08-01T12:00:14;13.32;;;1.75;;
52208;SDS011;38507;53.132;6.394;2022-08-01T12:02:46;8.32;;;1.10;;
52208;SDS011;38507;53.132;6.394;2022-08-01T12:05:52;8.18;;;1.17;;
52208;SDS011;38507;53.132;6.394;2022-08-01T12:11:18;7.68;;;1.13;;
52208;SDS011;38507;53.132;6.394;2022-08-01T12:13:49;7.05;;;1.25;;
52208;SDS011;38507;53.132;6.394;2022-08-01T12:16:26;6.72;;;1.10;;
52208;SDS011;38507;53.132;6.394;2022-08-01T12:18:51;6.20;;;1.17;;
52208;SDS011;38507;53.132;6.394;2022-08-01T12:21:26;6.25;;;1.00;;
52208;SDS011;38507;53.132;6.394;2022-08-01T12:24:06;7.72;;;1.65;;
52208;SDS011;38507;53.132;6.394;2022-08-01T12:26:41;7.55;;;1.33;;
52208;SDS011;38507;53.132;6.394;2022-08-01T12:29:07;10.73;;;1.05;;
52208;SDS011;38507;53.132;6.394;2022-08-01T12:31:34;7.65;;;1.27;;
52208;SDS011;38507;53.132;6.394;2022-08-01T12:34:33;9.77;;;1.52;;
52208;SDS011;38507;53.132;6.394;2022-08-01T12:36:54;9.52;;;1.50;;
52208;SDS011;38507;53.132;6.394;2022-08-01T12:39:29;9.82;;;1.52;;
52208;SDS011;38507;53.132;6.394;2022-08-01T12:41:58;8.07;;;1.27;;
52208;SDS011;38507;53.132;6.394;2022-08-01T12:44:24;4.80;;;1.05;;
52208;SDS011;38507;53.132;6.394;2022-08-01T12:46:51;4.38;;;0.90;;
52208;SDS011;38507;53.132;6.394;2022-08-01T12:49:20;6.18;;;1.00;;
52208;SDS011;38507;53.132;6.394;2022-08-01T12:51:50;9.50;;;0.98;;
52208;SDS011;38507;53.132;6.394;2022-08-01T12:54:16;6.43;;;1.10;;
52208;SDS011;38507;53.132;6.394;2022-08-01T12:56:41;6.70;;;0.77;;
52208;SDS011;38507;53.132;6.394;2022-08-01T12:59:23;5.20;;;0.93;;
52208;SDS011;38507;53.132;6.394;2022-08-01T13:01:54;8.73;;;1.52;;
52208;SDS011;38507;53.132;6.394;2022-08-01T13:04:21;5.70;;;1.20;;
52208;SDS011;38507;53.132;6.394;2022-08-01T13:06:48;7.85;;;1.30;;
52208;SDS011;38507;53.132;6.394;2022-08-01T13:09:20;11.32;;;1.52;;
52208;SDS011;38507;53.132;6.394;2022-08-01T13:11:45;10.30;;;1.10;;
52208;SDS011;38507;53.132;6.394;2022-08-01T13:14:27;11.45;;;1.10;;
52208;SDS011;38507;53.132;6.394;2022-08-01T13:16:53;6.53;;;1.20;;
52208;SDS011;38507;53.132;6.394;2022-08-01T13:19:19;6.15;;;0.98;;
52208;SDS011;38507;53.132;6.394;2022-08-01T13:21:55;8.60;;;1.23;;
52208;SDS011;38507;53.132;6.394;2022-08-01T13:24:30;6.43;;;1.08;;
52208;SDS011;38507;53.132;6.394;2022-08-01T13:26:57;7.00;;;0.93;;
52208;SDS011;38507;53.132;6.394;2022-08-01T13:29:48;7.60;;;0.88;;
52208;SDS011;38507;53.132;6.394;2022-08-01T13:32:18;10.27;;;1.23;;
52208;SDS011;38507;53.132;6.394;2022-08-01T13:34:45;7.93;;;1.17;;
52208;SDS011;38507;53.132;6.394;2022-08-01T13:37:11;9.68;;;1.85;;
52208;SDS011;38507;53.132;6.394;2022-08-01T13:39:37;4.57;;;1.02;;
52208;SDS011;38507;53.132;6.394;2022-08-01T13:42:12;8.02;;;1.00;;
52208;SDS011;38507;53.132;6.394;2022-08-01T13:44:42;7.18;;;1.30;;
52208;SDS011;38507;53.132;6.394;2022-08-01T13:47:11;6.68;;;0.80;;
52208;SDS011;38507;53.132;6.394;2022-08-01T13:49:37;7.78;;;1.00;;
52208;SDS011;38507;53.132;6.394;2022-08-01T13:52:10;6.68;;;1.30;;
52208;SDS011;38507;53.132;6.394;2022-08-01T13:54:36;7.75;;;1.30;;
52208;SDS011;38507;53.132;6.394;2022-08-01T13:57:05;8.85;;;1.10;;
52208;SDS011;38507;53.132;6.394;2022-08-01T13:59:33;7.38;;;1.17;;
52208;SDS011;38507;53.132;6.394;2022-08-01T14:01:59;6.28;;;1.20;;
52208;SDS011;38507;53.132;6.394;2022-08-01T14:04:24;6.68;;;1.25;;
52208;SDS011;38507;53.132;6.394;2022-08-01T14:06:50;6.72;;;1.00;;
52208;SDS011;38507;53.132;6.394;2022-08-01T14:09:16;7.85;;;1.35;;
52208;SDS011;38507;53.132;6.394;2022-08-01T14:11:44;9.13;;;1.30;;
52208;SDS011;38507;53.132;6.394;2022-08-01T14:14:10;8.68;;;1.73;;
52208;SDS011;38507;53.132;6.394;2022-08-01T14:16:35;8.70;;;1.67;;
52208;SDS011;38507;53.132;6.394;2022-08-01T14:19:02;7.13;;;0.93;;
52208;SDS011;38507;53.132;6.394;2022-08-01T14:21:28;7.15;;;1.30;;
52208;SDS011;38507;53.132;6.394;2022-08-01T14:23:54;5.90;;;0.98;;
52208;SDS011;38507;53.132;6.394;2022-08-01T14:26:19;6.18;;;1.02;;
52208;SDS011;38507;53.132;6.394;2022-08-01T14:28:45;9.75;;;1.20;;
52208;SDS011;38507;53.132;6.394;2022-08-01T14:31:10;7.38;;;1.15;;
52208;SDS011;38507;53.132;6.394;2022-08-01T14:33:36;6.18;;;1.00;;
52208;SDS011;38507;53.132;6.394;2022-08-01T14:36:02;4.05;;;0.80;;
52208;SDS011;38507;53.132;6.394;2022-08-01T14:38:28;5.13;;;0.77;;
52208;SDS011;38507;53.132;6.394;2022-08-01T14:40:53;5.57;;;1.13;;
52208;SDS011;38507;53.132;6.394;2022-08-01T14:43:20;4.28;;;0.90;;
52208;SDS011;38507;53.132;6.394;2022-08-01T14:45:45;7.03;;;1.00;;
52208;SDS011;38507;53.132;6.394;2022-08-01T14:48:15;5.70;;;1.13;;
52208;SDS011;38507;53.132;6.394;2022-08-01T14:50:42;7.05;;;1.45;;
52208;SDS011;38507;53.132;6.394;2022-08-01T14:53:07;4.60;;;1.00;;
52208;SDS011;38507;53.132;6.394;2022-08-01T14:55:33;8.35;;;1.42;;
52208;SDS011;38507;53.132;6.394;2022-08-01T14:57:59;6.28;;;1.35;;
52208;SDS011;38507;53.132;6.394;2022-08-01T15:00:24;5.57;;;1.15;;
52208;SDS011;38507;53.132;6.394;2022-08-01T15:02:50;6.97;;;1.13;;
52208;SDS011;38507;53.132;6.394;2022-08-01T15:05:15;6.85;;;1.17;;
52208;SDS011;38507;53.132;6.394;2022-08-01T15:07:41;6.28;;;1.15;;
52208;SDS011;38507;53.132;6.394;2022-08-01T15:10:07;6.72;;;1.20;;
52208;SDS011;38507;53.132;6.394;2022-08-01T15:12:34;8.55;;;1.20;;
52208;SDS011;38507;53.132;6.394;2022-08-01T15:15:00;7.13;;;0.90;;
52208;SDS011;38507;53.132;6.394;2022-08-01T15:17:29;6.65;;;1.08;;
52208;SDS011;38507;53.132;6.394;2022-08-01T15:20:00;9.77;;;1.30;;
52208;SDS011;38507;53.132;6.394;2022-08-01T15:22:28;8.88;;;1.40;;
52208;SDS011;38507;53.132;6.394;2022-08-01T15:24:54;6.45;;;1.02;;
52208;SDS011;38507;53.132;6.394;2022-08-01T15:27:21;5.85;;;0.93;;
52208;SDS011;38507;53.132;6.394;2022-08-01T15:29:47;7.70;;;1.02;;